sensor_id;sensor_type;location;lat;lon;timestamp;pressure;altitude;pressure_sealevel;temperature;humidity
57948;BME280;43754;56.992;24.292;2023-05-03T00:00:34;102025.22;;;2.88;100.00
57948;BME280;43754;56.992;24.292;2023-05-03T00:03:06;102032.34;;;2.88;100.00
57948;BME280;43754;56.992;24.292;2023-05-03T00:05:40;102029.00;;;2.84;100.00
57948;BME280;43754;56.992;24.292;2023-05-03T00:08:12;102037.81;;;2.85;100.00
57948;BME280;43754;56.992;24.292;2023-05-03T00:10:44;102031.78;;;2.83;100.00
57948;BME280;43754;56.992;24.292;2023-05-03T00:13:16;102040.88;;;2.78;100.00
57948;BME280;43754;56.992;24.292;2023-05-03T00:15:48;102042.75;;;2.76;100.00
57948;BME280;43754;56.992;24.292;2023-05-03T00:18:20;102044.66;;;2.74;100.00
57948;BME280;43754;56.992;24.292;2023-05-03T00:20:54;102048.25;;;2.73;100.00
57948;BME280;43754;56.992;24.292;2023-05-03T00:23:27;102055.44;;;2.71;100.00
57948;BME280;43754;56.992;24.292;2023-05-03T00:26:00;102058.28;;;2.68;100.00
57948;BME280;43754;56.992;24.292;2023-05-03T00:28:31;102061.84;;;2.67;100.00
57948;BME280;43754;56.992;24.292;2023-05-03T00:31:07;102064.50;;;2.67;100.00
57948;BME280;43754;56.992;24.292;2023-05-03T00:33:40;102077.94;;;2.64;100.00
57948;BME280;43754;56.992;24.292;2023-05-03T00:36:14;102084.28;;;2.62;100.00
57948;BME280;43754;56.992;24.292;2023-05-03T00:38:46;102089.09;;;2.55;100.00
57948;BME280;43754;56.992;24.292;2023-05-03T00:41:18;102090.06;;;2.54;100.00
57948;BME280;43754;56.992;24.292;2023-05-03T00:43:50;102098.75;;;2.56;100.00
57948;BME280;43754;56.992;24.292;2023-05-03T00:46:22;102095.38;;;2.54;100.00
57948;BME280;43754;56.992;24.292;2023-05-03T00:48:54;102092.59;;;2.56;100.00
57948;BME280;43754;56.992;24.292;2023-05-03T00:51:28;102088.16;;;2.56;100.00
57948;BME280;43754;56.992;24.292;2023-05-03T00:54:00;102085.81;;;2.52;100.00
57948;BME280;43754;56.992;24.292;2023-05-03T00:56:32;102077.84;;;2.52;100.00
57948;BME280;43754;56.992;24.292;2023-05-03T00:59:21;102081.94;;;2.57;100.00
57948;BME280;43754;56.992;24.292;2023-05-03T01:01:53;102087.88;;;2.61;100.00
57948;BME280;43754;56.992;24.292;2023-05-03T01:04:26;102078.50;;;2.55;100.00
57948;BME280;43754;56.992;24.292;2023-05-03T01:07:10;102080.22;;;2.56;100.00
57948;BME280;43754;56.992;24.292;2023-05-03T01:09:50;102068.63;;;2.59;100.00
57948;BME280;43754;56.992;24.292;2023-05-03T01:12:32;102069.34;;;2.61;100.00
57948;BME280;43754;56.992;24.292;2023-05-03T01:15:14;102077.28;;;2.61;100.00
57948;BME280;43754;56.992;24.292;2023-05-03T01:17:50;102072.00;;;2.61;100.00
57948;BME280;43754;56.992;24.292;2023-05-03T01:20:27;102071.25;;;2.59;100.00
57948;BME280;43754;56.992;24.292;2023-05-03T01:23:10;102079.00;;;2.62;100.00
57948;BME280;43754;56.992;24.292;2023-05-03T01:25:46;102083.44;;;2.61;100.00
57948;BME280;43754;56.992;24.292;2023-05-03T01:28:18;102079.00;;;2.62;100.00
57948;BME280;43754;56.992;24.292;2023-05-03T01:30:51;102087.22;;;2.57;100.00
57948;BME280;43754;56.992;24.292;2023-05-03T01:33:32;102079.47;;;2.54;100.00
57948;BME280;43754;56.992;24.292;2023-05-03T01:36:12;102079.56;;;2.53;100.00
57948;BME280;43754;56.992;24.292;2023-05-03T01:38:44;102082.22;;;2.53;100.00
57948;BME280;43754;56.992;24.292;2023-05-03T01:41:18;102076.16;;;2.51;100.00
57948;BME280;43754;56.992;24.292;2023-05-03T01:43:54;102083.16;;;2.52;100.00
57948;BME280;43754;56.992;24.292;2023-05-03T01:46:26;102077.84;;;2.52;100.00
57948;BME280;43754;56.992;24.292;2023-05-03T01:48:58;102072.84;;;2.47;100.00
57948;BME280;43754;56.992;24.292;2023-05-03T01:51:33;102082.69;;;2.45;100.00
57948;BME280;43754;56.992;24.292;2023-05-03T01:54:05;102074.09;;;2.42;100.00
57948;BME280;43754;56.992;24.292;2023-05-03T01:56:38;102078.63;;;2.40;100.00
57948;BME280;43754;56.992;24.292;2023-05-03T01:59:10;102071.53;;;2.40;100.00
57948;BME280;43754;56.992;24.292;2023-05-03T02:01:43;102081.47;;;2.37;100.00
57948;BME280;43754;56.992;24.292;2023-05-03T02:04:15;102080.69;;;2.35;100.00
57948;BME280;43754;56.992;24.292;2023-05-03T02:06:47;102085.13;;;2.34;100.00
57948;BME280;43754;56.992;24.292;2023-05-03T02:09:19;102080.81;;;2.33;100.00
57948;BME280;43754;56.992;24.292;2023-05-03T02:11:52;102082.69;;;2.31;100.00
57948;BME280;43754;56.992;24.292;2023-05-03T02:14:24;102079.84;;;2.34;100.00
57948;BME280;43754;56.992;24.292;2023-05-03T02:16:56;102079.84;;;2.34;100.00
57948;BME280;43754;56.992;24.292;2023-05-03T02:19:28;102078.44;;;2.28;100.00
57948;BME280;43754;56.992;24.292;2023-05-03T02:22:00;102081.19;;;2.27;100.00
57948;BME280;43754;56.992;24.292;2023-05-03T02:24:33;102081.25;;;2.25;100.00
57948;BME280;43754;56.992;24.292;2023-05-03T02:27:08;102079.56;;;2.24;100.00
57948;BME280;43754;56.992;24.292;2023-05-03T02:29:41;102083.25;;;2.22;100.00
57948;BME280;43754;56.992;24.292;2023-05-03T02:32:13;102079.84;;;2.20;100.00
57948;BME280;43754;56.992;24.292;2023-05-03T02:34:48;102079.00;;;2.19;100.00
57948;BME280;43754;56.992;24.292;2023-05-03T02:37:24;102091.19;;;2.22;100.00
57948;BME280;43754;56.992;24.292;2023-05-03T02:39:57;102087.59;;;2.23;100.00
57948;BME280;43754;56.992;24.292;2023-05-03T02:42:30;102094.69;;;2.22;100.00
57948;BME280;43754;56.992;24.292;2023-05-03T02:45:04;102087.59;;;2.23;100.00
57948;BME280;43754;56.992;24.292;2023-05-03T02:47:36;102089.19;;;2.25;100.00
57948;BME280;43754;56.992;24.292;2023-05-03T02:50:09;102090.25;;;2.23;100.00
57948;BME280;43754;56.992;24.292;2023-05-03T02:52:43;102091.09;;;2.23;100.00
57948;BME280;43754;56.992;24.292;2023-05-03T02:55:16;102083.91;;;2.25;100.00
57948;BME280;43754;56.992;24.292;2023-05-03T02:57:50;102087.25;;;2.29;100.00
57948;BME280;43754;56.992;24.292;2023-05-03T03:00:24;102086.97;;;2.34;100.00
57948;BME280;43754;56.992;24.292;2023-05-03T03:02:56;102084.19;;;2.35;100.00
57948;BME280;43754;56.992;24.292;2023-05-03T03:05:28;102084.13;;;2.37;100.00
57948;BME280;43754;56.992;24.292;2023-05-03T03:08:00;102084.41;;;2.32;100.00
57948;BME280;43754;56.992;24.292;2023-05-03T03:10:33;102092.59;;;2.27;100.00
57948;BME280;43754;56.992;24.292;2023-05-03T03:13:06;102102.41;;;2.25;100.00
57948;BME280;43754;56.992;24.292;2023-05-03T03:15:41;102101.59;;;2.25;100.00
57948;BME280;43754;56.992;24.292;2023-05-03T03:18:14;102104.13;;;2.26;100.00
57948;BME280;43754;56.992;24.292;2023-05-03T03:20:48;102104.97;;;2.27;100.00
57948;BME280;43754;56.992;24.292;2023-05-03T03:23:22;102106.59;;;2.29;100.00
57948;BME280;43754;56.992;24.292;2023-05-03T03:25:54;102109.13;;;2.31;100.00
57948;BME280;43754;56.992;24.292;2023-05-03T03:28:27;102110.84;;;2.32;100.00
57948;BME280;43754;56.992;24.292;2023-05-03T03:31:03;102115.88;;;2.37;100.00
57948;BME280;43754;56.992;24.292;2023-05-03T03:33:35;102123.69;;;2.38;100.00
57948;BME280;43754;56.992;24.292;2023-05-03T03:36:14;102128.69;;;2.43;100.00
57948;BME280;43754;56.992;24.292;2023-05-03T03:38:48;102132.03;;;2.46;100.00
57948;BME280;43754;56.992;24.292;2023-05-03T03:41:20;102133.56;;;2.50;100.00
57948;BME280;43754;56.992;24.292;2023-05-03T03:43:54;102137.59;;;2.56;100.00
57948;BME280;43754;56.992;24.292;2023-05-03T03:46:26;102136.38;;;2.61;100.00
57948;BME280;43754;56.992;24.292;2023-05-03T03:49:00;102144.13;;;2.64;100.00
57948;BME280;43754;56.992;24.292;2023-05-03T03:51:34;102146.22;;;2.73;100.00
57948;BME280;43754;56.992;24.292;2023-05-03T03:54:06;102149.88;;;2.85;100.00
57948;BME280;43754;56.992;24.292;2023-05-03T03:56:41;102163.78;;;3.03;100.00
57948;BME280;43754;56.992;24.292;2023-05-03T03:59:15;102165.44;;;3.18;100.00
57948;BME280;43754;56.992;24.292;2023-05-03T04:01:48;102174.97;;;3.35;100.00
57948;BME280;43754;56.992;24.292;2023-05-03T04:04:20;102169.94;;;3.44;100.00
57948;BME280;43754;56.992;24.292;2023-05-03T04:06:53;102176.13;;;3.57;100.00
57948;BME280;43754;56.992;24.292;2023-05-03T04:09:28;102178.00;;;3.69;100.00
57948;BME280;43754;56.992;24.292;2023-05-03T04:12:00;102182.91;;;3.76;100.00
57948;BME280;43754;56.992;24.292;2023-05-03T04:14:35;102186.56;;;4.00;100.00
57948;BME280;43754;56.992;24.292;2023-05-03T04:17:07;102180.66;;;4.34;100.00
57948;BME280;43754;56.992;24.292;2023-05-03T04:19:39;102179.72;;;4.73;100.00
57948;BME280;43754;56.992;24.292;2023-05-03T04:22:11;102185.97;;;4.85;100.00
57948;BME280;43754;56.992;24.292;2023-05-03T04:24:44;102188.22;;;4.91;100.00
57948;BME280;43754;56.992;24.292;2023-05-03T04:27:17;102189.63;;;4.96;100.00
57948;BME280;43754;56.992;24.292;2023-05-03T04:29:51;102186.72;;;4.99;100.00
57948;BME280;43754;56.992;24.292;2023-05-03T04:32:23;102192.66;;;5.03;100.00
57948;BME280;43754;56.992;24.292;2023-05-03T04:34:59;102196.81;;;4.94;100.00
57948;BME280;43754;56.992;24.292;2023-05-03T04:37:31;102194.38;;;5.04;100.00
57948;BME280;43754;56.992;24.292;2023-05-03T04:40:05;102208.63;;;5.03;100.00
57948;BME280;43754;56.992;24.292;2023-05-03T04:42:48;102203.50;;;5.13;100.00
57948;BME280;43754;56.992;24.292;2023-05-03T04:45:22;102209.00;;;5.22;100.00
57948;BME280;43754;56.992;24.292;2023-05-03T04:47:54;102214.97;;;5.26;100.00
57948;BME280;43754;56.992;24.292;2023-05-03T04:50:27;102206.63;;;5.30;100.00
57948;BME280;43754;56.992;24.292;2023-05-03T04:52:58;102204.59;;;5.46;100.00
57948;BME280;43754;56.992;24.292;2023-05-03T04:55:32;102202.50;;;5.63;100.00
57948;BME280;43754;56.992;24.292;2023-05-03T04:58:06;102204.38;;;5.73;100.00
57948;BME280;43754;56.992;24.292;2023-05-03T05:00:41;102208.13;;;5.71;100.00
57948;BME280;43754;56.992;24.292;2023-05-03T05:03:20;102203.22;;;5.65;100.00
57948;BME280;43754;56.992;24.292;2023-05-03T05:05:54;102202.38;;;5.64;100.00
57948;BME280;43754;56.992;24.292;2023-05-03T05:08:27;102202.66;;;5.72;100.00
57948;BME280;43754;56.992;24.292;2023-05-03T05:11:01;102210.09;;;5.92;100.00
57948;BME280;43754;56.992;24.292;2023-05-03T05:13:35;102215.28;;;6.18;100.00
57948;BME280;43754;56.992;24.292;2023-05-03T05:16:09;102203.81;;;6.39;100.00
57948;BME280;43754;56.992;24.292;2023-05-03T05:18:44;102205.56;;;6.63;100.00
57948;BME280;43754;56.992;24.292;2023-05-03T05:21:20;102204.72;;;6.51;100.00
57948;BME280;43754;56.992;24.292;2023-05-03T05:23:52;102206.28;;;6.54;100.00
57948;BME280;43754;56.992;24.292;2023-05-03T05:26:24;102215.00;;;6.56;100.00
57948;BME280;43754;56.992;24.292;2023-05-03T05:28:56;102219.34;;;6.45;100.00
57948;BME280;43754;56.992;24.292;2023-05-03T05:31:30;102222.41;;;6.63;100.00
57948;BME280;43754;56.992;24.292;2023-05-03T05:34:02;102220.75;;;7.18;100.00
57948;BME280;43754;56.992;24.292;2023-05-03T05:36:34;102217.13;;;7.84;100.00
57948;BME280;43754;56.992;24.292;2023-05-03T05:39:07;102223.47;;;8.36;100.00
57948;BME280;43754;56.992;24.292;2023-05-03T05:41:40;102230.78;;;8.34;99.17
57948;BME280;43754;56.992;24.292;2023-05-03T05:44:12;102234.06;;;8.26;98.03
57948;BME280;43754;56.992;24.292;2023-05-03T05:46:46;102237.50;;;8.17;99.37
57948;BME280;43754;56.992;24.292;2023-05-03T05:49:20;102235.16;;;8.35;100.00
57948;BME280;43754;56.992;24.292;2023-05-03T05:51:52;102230.91;;;8.73;99.07
57948;BME280;43754;56.992;24.292;2023-05-03T05:54:24;102239.84;;;8.84;97.06
57948;BME280;43754;56.992;24.292;2023-05-03T05:56:59;102239.91;;;8.93;98.08
57948;BME280;43754;56.992;24.292;2023-05-03T05:59:33;102235.31;;;9.05;95.98
57948;BME280;43754;56.992;24.292;2023-05-03T06:02:12;102243.00;;;9.29;91.13
57948;BME280;43754;56.992;24.292;2023-05-03T06:04:44;102235.66;;;9.21;93.28
57948;BME280;43754;56.992;24.292;2023-05-03T06:07:17;102236.47;;;9.12;96.00
57948;BME280;43754;56.992;24.292;2023-05-03T06:09:49;102250.16;;;8.88;93.62
57948;BME280;43754;56.992;24.292;2023-05-03T06:12:21;102245.84;;;8.55;94.88
57948;BME280;43754;56.992;24.292;2023-05-03T06:14:54;102256.97;;;8.40;97.73
57948;BME280;43754;56.992;24.292;2023-05-03T06:17:40;102250.78;;;8.39;98.79
57948;BME280;43754;56.992;24.292;2023-05-03T06:20:12;102242.16;;;8.47;99.46
57948;BME280;43754;56.992;24.292;2023-05-03T06:22:45;102243.31;;;8.54;99.06
57948;BME280;43754;56.992;24.292;2023-05-03T06:25:18;102246.28;;;8.60;98.27
57948;BME280;43754;56.992;24.292;2023-05-03T06:27:52;102241.41;;;8.86;97.04
57948;BME280;43754;56.992;24.292;2023-05-03T06:30:28;102248.56;;;9.46;94.18
57948;BME280;43754;56.992;24.292;2023-05-03T06:33:11;102247.00;;;9.93;93.74
57948;BME280;43754;56.992;24.292;2023-05-03T06:35:46;102247.69;;;10.14;90.53
57948;BME280;43754;56.992;24.292;2023-05-03T06:38:21;102249.69;;;10.60;87.74
57948;BME280;43754;56.992;24.292;2023-05-03T06:40:53;102249.88;;;11.05;86.49
57948;BME280;43754;56.992;24.292;2023-05-03T06:43:25;102252.41;;;11.07;83.43
57948;BME280;43754;56.992;24.292;2023-05-03T06:46:04;102249.53;;;11.55;81.43
57948;BME280;43754;56.992;24.292;2023-05-03T06:48:38;102254.50;;;11.77;80.60
57948;BME280;43754;56.992;24.292;2023-05-03T06:51:10;102262.94;;;12.10;79.02
57948;BME280;43754;56.992;24.292;2023-05-03T06:53:42;102263.75;;;11.92;76.07
57948;BME280;43754;56.992;24.292;2023-05-03T06:56:16;102263.06;;;11.63;76.18
57948;BME280;43754;56.992;24.292;2023-05-03T06:58:49;102267.28;;;11.93;73.60
57948;BME280;43754;56.992;24.292;2023-05-03T07:01:21;102261.59;;;11.96;74.33
57948;BME280;43754;56.992;24.292;2023-05-03T07:03:55;102269.06;;;12.02;73.75
57948;BME280;43754;56.992;24.292;2023-05-03T07:06:27;102265.38;;;12.03;72.22
57948;BME280;43754;56.992;24.292;2023-05-03T07:09:04;102275.16;;;12.22;70.39
57948;BME280;43754;56.992;24.292;2023-05-03T07:11:36;102275.84;;;12.06;68.82
57948;BME280;43754;56.992;24.292;2023-05-03T07:14:09;102273.63;;;11.74;68.47
57948;BME280;43754;56.992;24.292;2023-05-03T07:16:41;102276.63;;;11.62;68.84
57948;BME280;43754;56.992;24.292;2023-05-03T07:19:15;102281.53;;;11.39;69.90
57948;BME280;43754;56.992;24.292;2023-05-03T07:21:47;102280.16;;;11.35;71.43
57948;BME280;43754;56.992;24.292;2023-05-03T07:24:19;102279.09;;;11.18;69.77
57948;BME280;43754;56.992;24.292;2023-05-03T07:26:52;102283.63;;;10.98;70.41
57948;BME280;43754;56.992;24.292;2023-05-03T07:29:24;102290.31;;;10.85;71.52
57948;BME280;43754;56.992;24.292;2023-05-03T07:31:58;102293.06;;;11.22;71.66
57948;BME280;43754;56.992;24.292;2023-05-03T07:34:31;102293.63;;;11.52;71.79
57948;BME280;43754;56.992;24.292;2023-05-03T07:37:03;102295.06;;;11.47;70.51
57948;BME280;43754;56.992;24.292;2023-05-03T07:39:35;102289.28;;;11.42;70.73
57948;BME280;43754;56.992;24.292;2023-05-03T07:42:07;102284.59;;;11.17;70.39
57948;BME280;43754;56.992;24.292;2023-05-03T07:44:39;102288.47;;;11.32;72.27
57948;BME280;43754;56.992;24.292;2023-05-03T07:47:11;102291.78;;;11.53;72.77
57948;BME280;43754;56.992;24.292;2023-05-03T07:49:45;102288.44;;;11.78;71.31
57948;BME280;43754;56.992;24.292;2023-05-03T07:52:18;102303.16;;;11.74;70.13
57948;BME280;43754;56.992;24.292;2023-05-03T07:54:52;102299.19;;;11.78;67.77
57948;BME280;43754;56.992;24.292;2023-05-03T07:57:24;102301.75;;;11.43;66.94
57948;BME280;43754;56.992;24.292;2023-05-03T07:59:56;102293.63;;;11.52;67.08
57948;BME280;43754;56.992;24.292;2023-05-03T08:02:28;102300.25;;;11.58;64.97
57948;BME280;43754;56.992;24.292;2023-05-03T08:05:01;102297.47;;;11.50;63.34
57948;BME280;43754;56.992;24.292;2023-05-03T08:07:36;102302.84;;;11.40;64.56
57948;BME280;43754;56.992;24.292;2023-05-03T08:10:08;102300.13;;;11.50;63.91
57948;BME280;43754;56.992;24.292;2023-05-03T08:12:41;102297.00;;;11.54;65.31
57948;BME280;43754;56.992;24.292;2023-05-03T08:15:13;102303.69;;;11.78;63.57
57948;BME280;43754;56.992;24.292;2023-05-03T08:17:45;102300.00;;;12.24;61.29
57948;BME280;43754;56.992;24.292;2023-05-03T08:20:18;102293.19;;;12.90;61.87
57948;BME280;43754;56.992;24.292;2023-05-03T08:22:51;102287.84;;;13.42;59.73
57948;BME280;43754;56.992;24.292;2023-05-03T08:25:25;102286.00;;;13.85;56.53
57948;BME280;43754;56.992;24.292;2023-05-03T08:27:56;102286.06;;;14.17;57.53
57948;BME280;43754;56.992;24.292;2023-05-03T08:30:29;102285.81;;;14.44;55.75
57948;BME280;43754;56.992;24.292;2023-05-03T08:33:01;102285.06;;;14.26;51.38
57948;BME280;43754;56.992;24.292;2023-05-03T08:35:35;102280.59;;;13.76;53.64
57948;BME280;43754;56.992;24.292;2023-05-03T08:38:07;102284.16;;;13.93;54.72
57948;BME280;43754;56.992;24.292;2023-05-03T08:40:39;102282.56;;;13.66;53.62
57948;BME280;43754;56.992;24.292;2023-05-03T08:43:12;102281.75;;;13.82;52.89
57948;BME280;43754;56.992;24.292;2023-05-03T08:45:45;102282.78;;;13.81;54.77
57948;BME280;43754;56.992;24.292;2023-05-03T08:48:18;102270.25;;;14.30;53.45
57948;BME280;43754;56.992;24.292;2023-05-03T08:50:51;102270.63;;;14.59;51.98
57948;BME280;43754;56.992;24.292;2023-05-03T08:53:24;102267.25;;;14.82;51.76
57948;BME280;43754;56.992;24.292;2023-05-03T08:55:57;102267.94;;;14.51;51.20
57948;BME280;43754;56.992;24.292;2023-05-03T08:58:29;102268.16;;;13.92;50.84
57948;BME280;43754;56.992;24.292;2023-05-03T09:01:04;102274.59;;;12.97;52.04
57948;BME280;43754;56.992;24.292;2023-05-03T09:03:37;102283.25;;;12.65;54.69
57948;BME280;43754;56.992;24.292;2023-05-03T09:06:19;102274.13;;;13.02;54.69
57948;BME280;43754;56.992;24.292;2023-05-03T09:08:52;102277.19;;;13.74;53.47
57948;BME280;43754;56.992;24.292;2023-05-03T09:11:26;102279.69;;;14.18;50.90
57948;BME280;43754;56.992;24.292;2023-05-03T09:14:10;102265.72;;;14.63;49.00
57948;BME280;43754;56.992;24.292;2023-05-03T09:16:44;102258.41;;;15.12;49.72
57948;BME280;43754;56.992;24.292;2023-05-03T09:19:16;102260.09;;;15.13;47.54
57948;BME280;43754;56.992;24.292;2023-05-03T09:21:49;102266.06;;;14.68;46.77
57948;BME280;43754;56.992;24.292;2023-05-03T09:24:21;102264.81;;;13.98;47.09
57948;BME280;43754;56.992;24.292;2023-05-03T09:26:53;102267.81;;;13.45;49.12
57948;BME280;43754;56.992;24.292;2023-05-03T09:29:30;102269.53;;;13.20;49.57
57948;BME280;43754;56.992;24.292;2023-05-03T09:32:03;102276.84;;;12.84;51.17
57948;BME280;43754;56.992;24.292;2023-05-03T09:34:36;102278.88;;;12.64;50.02
57948;BME280;43754;56.992;24.292;2023-05-03T09:37:10;102277.53;;;12.42;51.01
57948;BME280;43754;56.992;24.292;2023-05-03T09:39:45;102282.06;;;12.42;51.36
57948;BME280;43754;56.992;24.292;2023-05-03T09:42:18;102285.91;;;12.39;52.07
57948;BME280;43754;56.992;24.292;2023-05-03T09:44:50;102289.97;;;12.43;52.15
57948;BME280;43754;56.992;24.292;2023-05-03T09:47:22;102295.44;;;12.52;52.52
57948;BME280;43754;56.992;24.292;2023-05-03T09:49:56;102292.88;;;12.50;51.06
57948;BME280;43754;56.992;24.292;2023-05-03T09:52:30;102298.03;;;12.26;51.81
57948;BME280;43754;56.992;24.292;2023-05-03T09:55:03;102300.69;;;12.08;52.41
57948;BME280;43754;56.992;24.292;2023-05-03T09:57:36;102303.16;;;12.19;51.36
57948;BME280;43754;56.992;24.292;2023-05-03T10:00:09;102300.19;;;12.22;53.01
57948;BME280;43754;56.992;24.292;2023-05-03T10:02:44;102304.28;;;11.99;52.84
57948;BME280;43754;56.992;24.292;2023-05-03T10:05:19;102299.59;;;11.83;53.83
57948;BME280;43754;56.992;24.292;2023-05-03T10:07:55;102289.19;;;11.98;54.40
57948;BME280;43754;56.992;24.292;2023-05-03T10:10:31;102291.88;;;11.98;54.32
57948;BME280;43754;56.992;24.292;2023-05-03T10:13:04;102285.75;;;12.06;53.83
57948;BME280;43754;56.992;24.292;2023-05-03T10:15:38;102282.81;;;12.17;53.96
57948;BME280;43754;56.992;24.292;2023-05-03T10:18:14;102277.44;;;12.34;52.52
57948;BME280;43754;56.992;24.292;2023-05-03T10:20:51;102274.59;;;12.54;51.34
57948;BME280;43754;56.992;24.292;2023-05-03T10:23:27;102279.56;;;12.66;51.53
57948;BME280;43754;56.992;24.292;2023-05-03T10:26:12;102274.22;;;12.31;50.94
57948;BME280;43754;56.992;24.292;2023-05-03T10:28:44;102280.03;;;12.09;51.76
57948;BME280;43754;56.992;24.292;2023-05-03T10:31:44;102281.63;;;11.84;51.82
57948;BME280;43754;56.992;24.292;2023-05-03T10:34:22;102287.44;;;11.79;51.13
57948;BME280;43754;56.992;24.292;2023-05-03T10:36:54;102293.53;;;11.81;52.79
57948;BME280;43754;56.992;24.292;2023-05-03T10:39:28;102291.84;;;11.80;54.60
57948;BME280;43754;56.992;24.292;2023-05-03T10:42:02;102310.03;;;11.86;55.06
57948;BME280;43754;56.992;24.292;2023-05-03T10:44:39;102313.91;;;12.02;53.90
57948;BME280;43754;56.992;24.292;2023-05-03T10:47:12;102306.69;;;12.20;52.98
57948;BME280;43754;56.992;24.292;2023-05-03T10:49:45;102313.38;;;12.16;52.92
57948;BME280;43754;56.992;24.292;2023-05-03T10:52:44;102314.41;;;11.87;54.08
57948;BME280;43754;56.992;24.292;2023-05-03T10:55:19;102313.75;;;12.03;51.35
57948;BME280;43754;56.992;24.292;2023-05-03T10:57:55;102324.22;;;12.41;51.56
57948;BME280;43754;56.992;24.292;2023-05-03T11:00:34;102324.91;;;12.79;52.55
57948;BME280;43754;56.992;24.292;2023-05-03T11:03:34;102322.56;;;13.02;51.13
57948;BME280;43754;56.992;24.292;2023-05-03T11:06:08;102310.13;;;12.83;48.87
57948;BME280;43754;56.992;24.292;2023-05-03T11:30:20;102321.25;;;12.27;51.78
57948;BME280;43754;56.992;24.292;2023-05-03T11:32:52;102327.72;;;12.07;51.68
57948;BME280;43754;56.992;24.292;2023-05-03T11:35:27;102323.09;;;11.81;52.55
57948;BME280;43754;56.992;24.292;2023-05-03T11:37:59;102323.09;;;11.99;51.67
57948;BME280;43754;56.992;24.292;2023-05-03T11:40:32;102321.97;;;12.02;52.01
57948;BME280;43754;56.992;24.292;2023-05-03T11:43:04;102316.31;;;12.40;50.79
57948;BME280;43754;56.992;24.292;2023-05-03T11:45:41;102318.13;;;12.93;51.56
57948;BME280;43754;56.992;24.292;2023-05-03T11:48:15;102310.16;;;13.60;50.67
57948;BME280;43754;56.992;24.292;2023-05-03T11:50:49;102319.19;;;14.35;49.31
57948;BME280;43754;56.992;24.292;2023-05-03T11:53:27;102315.66;;;14.67;47.52
57948;BME280;43754;56.992;24.292;2023-05-03T11:55:59;102317.16;;;14.69;47.68
57948;BME280;43754;56.992;24.292;2023-05-03T11:58:32;102322.91;;;14.66;47.37
57948;BME280;43754;56.992;24.292;2023-05-03T12:01:05;102321.72;;;14.53;46.56
57948;BME280;43754;56.992;24.292;2023-05-03T12:03:38;102329.63;;;14.38;47.30
57948;BME280;43754;56.992;24.292;2023-05-03T12:06:10;102325.16;;;14.13;47.54
57948;BME280;43754;56.992;24.292;2023-05-03T12:08:44;102326.84;;;14.14;48.14
57948;BME280;43754;56.992;24.292;2023-05-03T12:11:17;102332.59;;;14.11;49.15
57948;BME280;43754;56.992;24.292;2023-05-03T12:13:56;102331.50;;;13.96;48.02
57948;BME280;43754;56.992;24.292;2023-05-03T12:16:45;102334.03;;;13.89;47.40
57948;BME280;43754;56.992;24.292;2023-05-03T12:19:24;102330.19;;;14.08;48.63
57948;BME280;43754;56.992;24.292;2023-05-03T12:21:57;102333.84;;;14.41;47.11
57948;BME280;43754;56.992;24.292;2023-05-03T12:24:35;102330.66;;;14.61;47.06
57948;BME280;43754;56.992;24.292;2023-05-03T12:27:10;102336.09;;;14.78;46.76
57948;BME280;43754;56.992;24.292;2023-05-03T12:29:45;102343.84;;;14.72;45.67
57948;BME280;43754;56.992;24.292;2023-05-03T12:32:19;102334.75;;;14.73;46.09
57948;BME280;43754;56.992;24.292;2023-05-03T12:34:54;102341.38;;;14.29;47.44
57948;BME280;43754;56.992;24.292;2023-05-03T12:37:27;102341.44;;;14.37;49.80
57948;BME280;43754;56.992;24.292;2023-05-03T12:40:05;102343.84;;;14.56;49.40
57948;BME280;43754;56.992;24.292;2023-05-03T12:42:57;102340.09;;;14.49;49.73
57948;BME280;43754;56.992;24.292;2023-05-03T12:45:29;102345.53;;;14.73;51.34
57948;BME280;43754;56.992;24.292;2023-05-03T12:48:06;102350.75;;;14.99;50.31
57948;BME280;43754;56.992;24.292;2023-05-03T12:50:39;102346.88;;;15.10;51.12
57948;BME280;43754;56.992;24.292;2023-05-03T12:53:16;102352.75;;;14.49;50.88
57948;BME280;43754;56.992;24.292;2023-05-03T12:55:48;102357.97;;;14.42;51.41
57948;BME280;43754;56.992;24.292;2023-05-03T12:58:22;102362.22;;;14.61;50.95
57948;BME280;43754;56.992;24.292;2023-05-03T13:01:14;102360.22;;;14.13;49.00
57948;BME280;43754;56.992;24.292;2023-05-03T13:04:09;102364.81;;;13.87;51.86
57948;BME280;43754;56.992;24.292;2023-05-03T13:06:45;102364.78;;;13.78;52.65
57948;BME280;43754;56.992;24.292;2023-05-03T13:09:18;102361.09;;;13.79;53.27
57948;BME280;43754;56.992;24.292;2023-05-03T13:11:54;102368.66;;;13.76;54.03
57948;BME280;43754;56.992;24.292;2023-05-03T13:14:27;102373.69;;;13.19;53.19
57948;BME280;43754;56.992;24.292;2023-05-03T13:16:59;102373.66;;;12.76;54.89
57948;BME280;43754;56.992;24.292;2023-05-03T13:19:34;102384.81;;;12.63;56.95
57948;BME280;43754;56.992;24.292;2023-05-03T13:22:07;102384.81;;;12.63;56.73
57948;BME280;43754;56.992;24.292;2023-05-03T13:24:39;102388.88;;;12.67;55.86
57948;BME280;43754;56.992;24.292;2023-05-03T13:27:12;102387.31;;;12.82;56.06
57948;BME280;43754;56.992;24.292;2023-05-03T13:29:44;102385.72;;;12.89;55.05
57948;BME280;43754;56.992;24.292;2023-05-03T13:32:19;102386.84;;;13.05;55.13
57948;BME280;43754;56.992;24.292;2023-05-03T13:34:53;102382.47;;;13.04;54.80
57948;BME280;43754;56.992;24.292;2023-05-03T13:37:25;102386.00;;;12.86;53.92